createdAt,value
2022-08-14T00:04:35.762Z,21.56962
2022-08-14T00:10:01.736Z,21.51308
2022-08-14T00:15:51.705Z,21.45751
2022-08-14T00:20:52.729Z,21.39128
2022-08-14T00:26:06.134Z,21.34024
2022-08-14T00:31:09.740Z,21.27142
2022-08-14T00:36:36.954Z,21.1984
2022-08-14T00:41:49.093Z,21.13863
2022-08-14T00:46:50.478Z,21.08565
2022-08-14T00:51:51.543Z,21.04106
2022-08-14T00:56:55.315Z,20.99842
2022-08-14T01:01:57.175Z,20.90408
2022-08-14T01:06:59.194Z,20.85659
2022-08-14T01:12:03.470Z,20.79262
2022-08-14T01:17:04.692Z,20.73414
2022-08-14T01:22:05.623Z,20.67437
2022-08-14T01:27:07.220Z,20.67211
2022-08-14T01:32:10.420Z,20.68342
2022-08-14T01:37:11.617Z,20.69279
2022-08-14T01:42:32.109Z,20.69246
2022-08-14T01:47:37.545Z,20.71346
2022-08-14T01:52:59.588Z,20.69634
2022-08-14T01:58:18.837Z,20.68245
2022-08-14T02:03:22.171Z,20.67728
2022-08-14T02:08:34.426Z,20.65886
2022-08-14T02:13:37.122Z,20.67599
2022-08-14T02:18:38.208Z,20.65951
2022-08-14T02:23:40.466Z,20.64497
2022-08-14T02:28:57.693Z,20.62882
2022-08-14T02:34:00.365Z,20.60717
2022-08-14T02:39:01.405Z,20.58133
2022-08-14T02:44:02.978Z,20.60394
2022-08-14T02:49:08.464Z,20.57648
2022-08-14T02:54:13.250Z,20.54999
2022-08-14T02:59:21.146Z,20.55386
2022-08-14T03:04:22.126Z,20.5474
2022-08-14T03:09:23.131Z,20.55096
2022-08-14T03:14:24.182Z,20.53254
2022-08-14T03:19:25.209Z,20.52414
2022-08-14T03:24:26.208Z,20.48957
2022-08-14T03:29:28.045Z,20.46954
2022-08-14T03:34:47.948Z,20.44208
2022-08-14T03:39:49.638Z,20.40622
2022-08-14T03:45:18.968Z,20.40686
2022-08-14T03:50:31.489Z,20.3849
2022-08-14T03:55:33.266Z,20.36034
2022-08-14T04:00:43.993Z,20.31737
2022-08-14T04:05:48.532Z,20.30057
2022-08-14T04:10:50.281Z,20.29508
2022-08-14T04:16:01.218Z,20.30865
2022-08-14T04:21:04.140Z,20.35517
2022-08-14T04:26:08.213Z,20.39911
2022-08-14T04:31:09.572Z,20.43142
2022-08-14T04:36:16.040Z,20.42237
2022-08-14T04:41:18.627Z,20.4185
2022-08-14T04:46:56.315Z,20.45694
2022-08-14T04:51:58.606Z,20.51897
2022-08-14T04:57:04.043Z,20.59134
2022-08-14T05:02:05.053Z,20.59166
2022-08-14T05:07:06.028Z,20.66856
2022-08-14T05:13:12.841Z,20.72445
2022-08-14T05:18:17.230Z,20.77743
2022-08-14T05:23:38.368Z,20.90376
2022-08-14T05:28:43.466Z,21.04139
2022-08-14T05:33:44.469Z,21.20293
2022-08-14T05:38:56.345Z,21.37351
2022-08-14T05:43:57.949Z,21.42068
2022-08-14T05:48:58.876Z,21.56833
2022-08-14T05:54:12.787Z,21.68787
2022-08-14T05:59:36.839Z,21.84392
2022-08-14T06:04:40.523Z,22.88198
2022-08-14T06:09:42.736Z,22.61867
2022-08-14T06:14:52.020Z,22.57085
2022-08-14T06:19:55.128Z,22.56407
2022-08-14T06:24:57.146Z,22.62351
2022-08-14T06:29:58.075Z,22.68038
2022-08-14T06:35:04.017Z,22.80897
2022-08-14T06:40:25.576Z,22.87261
2022-08-14T06:45:28.523Z,22.89781
2022-08-14T06:50:30.519Z,23.34399
2022-08-14T06:55:31.549Z,23.41798
2022-08-14T07:00:32.553Z,23.63994
2022-08-14T07:05:33.578Z,23.9081
2022-08-14T07:10:35.716Z,23.9724
2022-08-14T07:15:39.616Z,24.07805
2022-08-14T07:20:43.590Z,24.36786
2022-08-14T07:25:45.610Z,27.49251
2022-08-14T07:30:50.685Z,27.46279
2022-08-14T07:35:57.836Z,26.93032
2022-08-14T07:40:59.880Z,26.36716
2022-08-14T07:46:00.912Z,26.03987
2022-08-14T07:51:11.104Z,25.93744
2022-08-14T07:56:21.597Z,26.00012
2022-08-14T08:01:37.739Z,26.39269
2022-08-14T08:06:49.518Z,26.54874
2022-08-14T08:11:54.208Z,26.67507
2022-08-14T08:16:55.581Z,26.86764
2022-08-14T08:21:56.523Z,26.96554
2022-08-14T08:26:57.413Z,27.14001
2022-08-14T08:32:01.811Z,27.25084
2022-08-14T08:37:07.132Z,27.26731
2022-08-14T08:42:08.426Z,27.33
2022-08-14T08:47:11.279Z,27.6308
2022-08-14T08:52:24.497Z,27.85827
2022-08-14T08:57:26.642Z,28.09155
2022-08-14T09:02:27.924Z,28.49736
2022-08-14T09:07:28.966Z,28.73323
2022-08-14T09:12:32.997Z,28.89284
2022-08-14T09:17:34.169Z,28.96554
2022-08-14T09:22:36.727Z,29.04567
2022-08-14T09:27:48.898Z,29.2082
2022-08-14T09:32:59.539Z,29.41822
2022-08-14T09:38:01.130Z,29.71644
2022-08-14T09:43:02.201Z,29.90352
2022-08-14T09:48:03.189Z,29.90966
2022-08-14T09:53:04.520Z,30.16072
2022-08-14T09:58:05.839Z,30.27155
2022-08-14T10:03:09.130Z,30.81696
2022-08-14T10:08:14.980Z,31.06511
2022-08-14T10:13:16.149Z,31.01923
2022-08-14T10:18:18.333Z,30.99952
2022-08-14T10:23:19.512Z,31.18692
2022-08-14T10:28:39.646Z,31.15235
2022-08-14T10:34:20.181Z,31.23119
2022-08-14T10:39:30.451Z,31.26738
2022-08-14T10:44:32.983Z,31.61247
2022-08-14T10:49:33.930Z,31.75141
2022-08-14T10:54:40.048Z,31.99407
2022-08-14T10:59:43.383Z,31.92815
2022-08-14T11:04:44.593Z,31.84252
2022-08-14T11:09:46.790Z,32.03639
2022-08-14T11:14:49.346Z,31.91846
2022-08-14T11:19:53.717Z,31.82249
2022-08-14T11:24:56.069Z,31.796
2022-08-14T11:30:00.519Z,31.89228
2022-08-14T11:35:53.706Z,31.9498
2022-08-14T11:41:00.833Z,31.98437
2022-08-14T11:46:03.377Z,31.99697
2022-08-14T11:51:04.945Z,32.03704
2022-08-14T11:56:11.040Z,32.11006
2022-08-14T12:01:12.232Z,31.99924
2022-08-14T12:06:28.766Z,32.28681
2022-08-14T12:11:44.244Z,32.27259
2022-08-14T12:16:48.647Z,32.41735
2022-08-14T12:21:50.017Z,32.82868
2022-08-14T12:26:57.821Z,33.18185
2022-08-14T12:32:00.096Z,33.57638
2022-08-14T12:37:01.112Z,33.76832
2022-08-14T12:42:02.145Z,34.09855
2022-08-14T12:47:03.081Z,34.33346
2022-08-14T12:52:11.871Z,34.43557
2022-08-14T12:57:20.382Z,35.08085
2022-08-14T13:02:21.709Z,35.4825
2022-08-14T13:07:27.113Z,35.79367
2022-08-14T13:12:43.196Z,35.77138
2022-08-14T13:17:57.674Z,35.96105
2022-08-14T13:23:01.268Z,36.38209
2022-08-14T13:28:02.294Z,37.03127
2022-08-14T13:33:03.214Z,37.28267
2022-08-14T13:38:04.117Z,37.54441
2022-08-14T13:43:05.685Z,37.73021
2022-08-14T13:48:06.584Z,37.66429
2022-08-14T13:53:07.703Z,37.60483
2022-08-14T13:58:30.011Z,37.63682
2022-08-14T14:03:34.811Z,37.72892
2022-08-14T14:08:43.477Z,37.81196
2022-08-14T14:13:48.425Z,37.71438
2022-08-14T14:18:49.338Z,37.71244
2022-08-14T14:23:53.430Z,37.88887
2022-08-14T14:28:54.827Z,38.07661
2022-08-14T14:33:58.322Z,38.06627
2022-08-14T14:38:59.414Z,37.71018
2022-08-14T14:44:00.376Z,37.82941
2022-08-14T14:49:01.546Z,37.63812
2022-08-14T14:54:04.554Z,37.61033
2022-08-14T14:59:05.525Z,37.45231
2022-08-14T15:04:07.980Z,37.15018
2022-08-14T15:09:23.806Z,36.892
2022-08-14T15:14:55.028Z,36.8138
2022-08-14T15:19:59.040Z,36.86679
2022-08-14T15:25:00.016Z,36.84256
2022-08-14T15:30:02.249Z,36.63834
2022-08-14T15:35:03.613Z,36.57856
2022-08-14T15:40:10.264Z,36.24282
2022-08-14T15:45:23.302Z,36.06252
2022-08-14T15:50:25.317Z,35.99789
2022-08-14T15:55:27.570Z,35.76491
2022-08-14T16:00:40.486Z,35.6641
2022-08-14T16:05:46.125Z,35.59462
2022-08-14T16:10:47.240Z,35.38168
2022-08-14T16:15:53.069Z,35.19847
2022-08-14T16:20:54.681Z,35.00362
2022-08-14T16:25:55.671Z,34.79391
2022-08-14T16:30:56.618Z,34.61296
2022-08-14T16:36:00.664Z,34.37676
2022-08-14T16:41:01.942Z,34.15606
2022-08-14T16:46:02.871Z,33.9945
2022-08-14T16:51:06.792Z,33.68107
2022-08-14T16:56:07.967Z,33.40416
2022-08-14T17:01:24.451Z,33.20091
2022-08-14T17:06:30.561Z,32.98572
2022-08-14T17:11:37.478Z,32.8416
2022-08-14T17:16:38.571Z,32.6655
2022-08-14T17:21:41.530Z,32.3188
2022-08-14T17:26:42.768Z,32.03833
2022-08-14T17:31:58.600Z,31.8338
2022-08-14T17:37:01.663Z,31.606
2022-08-14T17:42:03.386Z,31.41375
2022-08-14T17:47:14.596Z,31.27416
2022-08-14T17:52:18.940Z,31.18983
2022-08-14T17:57:41.173Z,30.95364
2022-08-14T18:02:50.626Z,30.82698
2022-08-14T18:08:31.406Z,30.69224
2022-08-14T18:13:51.260Z,30.58723
2022-08-14T18:18:53.640Z,30.43666
2022-08-14T18:23:54.569Z,30.2583
2022-08-14T18:28:55.507Z,29.97816
2022-08-14T18:34:00.105Z,29.59625
2022-08-14T18:39:01.132Z,29.34358
2022-08-14T18:44:02.119Z,29.12645
2022-08-14T18:49:03.031Z,28.93485
2022-08-14T18:54:06.324Z,28.72451
2022-08-14T18:59:11.157Z,28.5468
2022-08-14T19:04:12.073Z,28.47992
2022-08-14T19:09:13.420Z,28.39171
2022-08-14T19:14:14.366Z,28.15197
2022-08-14T19:19:17.394Z,28.00851
2022-08-14T19:24:29.613Z,27.92999
2022-08-14T19:29:37.670Z,27.82886
2022-08-14T19:34:52.779Z,27.73775
2022-08-14T19:39:54.384Z,27.60172
2022-08-14T19:44:55.365Z,27.5371
2022-08-14T19:50:24.535Z,27.51998
2022-08-14T19:55:39.755Z,27.4783
2022-08-14T20:00:51.819Z,27.41303
2022-08-14T20:05:57.527Z,27.3888
2022-08-14T20:11:15.825Z,27.30027
2022-08-14T20:16:32.307Z,27.23597
2022-08-14T20:21:34.573Z,27.15778
2022-08-14T20:26:36.737Z,27.06021
2022-08-14T20:31:38.394Z,26.90544
2022-08-14T20:36:41.824Z,26.79268
2022-08-14T20:41:48.936Z,26.68638
2022-08-14T20:46:52.595Z,26.55617
2022-08-14T20:51:58.802Z,26.44083
2022-08-14T20:57:00.637Z,26.35747
2022-08-14T21:02:01.554Z,26.27605
2022-08-14T21:07:35.522Z,26.14875
2022-08-14T21:12:38.059Z,26.01596
2022-08-14T21:18:28.600Z,25.9368
2022-08-14T21:23:34.853Z,25.89156
2022-08-14T21:28:56.079Z,25.83341
2022-08-14T21:33:57.086Z,25.76685
2022-08-14T21:38:58.155Z,25.72226
2022-08-14T21:44:04.331Z,25.68285
2022-08-14T21:49:10.355Z,25.66184
2022-08-14T21:54:30.250Z,25.636
2022-08-14T21:59:38.537Z,25.61823
2022-08-14T22:04:41.472Z,25.54165
2022-08-14T22:09:43.006Z,25.44731
2022-08-14T22:14:44.516Z,25.40272
2022-08-14T22:19:54.169Z,25.32583
2022-08-14T22:25:01.919Z,25.24667
2022-08-14T22:30:03.161Z,25.1659
2022-08-14T22:35:04.161Z,25.09255
2022-08-14T22:40:50.903Z,24.99401
2022-08-14T22:46:20.368Z,24.93682
2022-08-14T22:51:21.660Z,24.90258
2022-08-14T22:56:30.263Z,24.8357
2022-08-14T23:01:56.574Z,24.79079
2022-08-14T23:07:02.873Z,24.66058
2022-08-14T23:12:05.576Z,24.60469
2022-08-14T23:17:38.970Z,24.53877
2022-08-14T23:22:40.694Z,24.48062
2022-08-14T23:28:02.652Z,24.38401
2022-08-14T23:33:04.827Z,24.29484
2022-08-14T23:38:06.791Z,24.22538
2022-08-14T23:43:14.187Z,24.1753
2022-08-14T23:48:15.235Z,24.14364
2022-08-14T23:53:28.518Z,24.10551
2022-08-14T23:58:49.515Z,24.04736
